Historique des mesures à Cassis (13260), France
Quotidien Résumé Juin 16, 2021 Unités:  Métrique    US   Métrique/US
Quotidien Hebdomadaire Mensuel Annuel
  Maximum: Minimum: Moyenne:
Température: 30.8 °C 23.6 °C 26.9 °C
Point de rosée: 20 °C 9.6 °C 15.3 °C
Humidité: 71% 28% 51%
Vitesse du vent: 56.9km/h 0km/h 25.5km/h
Rafales: 71.6km/h - -
Vent- - West
Pression: 1010.8 hPa 1008.5 hPa -
Précipitations: 0.0 mm    
Historical Graphs
 
 
Mesures pour : Juin 16, 2021
Heure Temperature Point de rosée Pression Vent Vitesse du vent Rafales Humidité Pluie (par heure)
00:11 25.8 °C 18.2 °C 1010.8 hPa Calm   2.5 km/h 63% 0.0 mm
01:11 25.4 °C 19.1 °C 1010.5 hPa Calm   10.8 km/h 68% 0.0 mm
02:11 25.1 °C 19.3 °C 1010.0 hPa Calm   1.4 km/h 70% 0.0 mm
03:11 25.6 °C 20 °C 1009.5 hPa West 7.6 km/h 28.8 km/h 71% 0.0 mm
04:11 25.3 °C 19.5 °C 1008.9 hPa NW 19.1 km/h 20.5 km/h 70% 0.0 mm
05:11 24.5 °C 18.2 °C 1009.1 hPa West 19.4 km/h 20.2 km/h 68% 0.0 mm
06:11 24.1 °C 17.8 °C 1009.1 hPa WNW 22.7 km/h 31.3 km/h 68% 0.0 mm
07:11 23.9 °C 18.1 °C 1009.3 hPa NW 15.8 km/h 25.2 km/h 70% 0.0 mm
08:11 28 °C 18.9 °C 1009.7 hPa North 11.5 km/h 16.2 km/h 58% 0.0 mm
09:11 26.6 °C 17.4 °C 1010.1 hPa WNW 5 km/h 28.1 km/h 57% 0.0 mm
10:11 26.2 °C 17.3 °C 1010.0 hPa NW 26.3 km/h 33.8 km/h 58% 0.0 mm
11:11 28.1 °C 17.6 °C 1010.3 hPa WNW 25.2 km/h 39.2 km/h 53% 0.0 mm
12:11 29.1 °C 17 °C 1009.9 hPa WNW 31 km/h 56.9 km/h 48% 0.0 mm
13:11 29.5 °C 15.3 °C 1009.7 hPa NW 56.9 km/h 58 km/h 42% 0.0 mm
14:11 29.9 °C 13.6 °C 1009.9 hPa WSW 27 km/h 60.1 km/h 37% 0.0 mm
15:11 30.2 °C 11.6 °C 1009.7 hPa NW 51.5 km/h 59.8 km/h 32% 0.0 mm
16:11 30.8 °C 10.1 °C 1009.2 hPa SW 23.4 km/h 57.6 km/h 28% 0.0 mm
17:11 30.3 °C 12.2 °C 1008.9 hPa WNW 25.9 km/h 41.8 km/h 33% 0.0 mm
18:11 29.9 °C 12.3 °C 1008.9 hPa NW 41.8 km/h 46.8 km/h 34% 0.0 mm
19:11 28.3 °C 11.7 °C 1008.9 hPa NW 41.4 km/h 52.6 km/h 36% 0.0 mm
20:11 26.3 °C 10.8 °C 1009.3 hPa WNW 28.8 km/h 44.3 km/h 38% 0.0 mm
21:11 24.9 °C 9.6 °C 1009.2 hPa WNW 40.3 km/h 69.8 km/h 38% 0.0 mm
22:11 24.2 °C 9.8 °C 1009.1 hPa WNW 55.4 km/h 71.6 km/h 40% 0.0 mm
23:11 23.6 °C 10.6 °C 1008.5 hPa WNW 37.1 km/h 71.6 km/h 44% 0.0 mm
Observations météo à CASSIS
WU-History script by Weather Underground - 2 mb